sensor_id;sensor_type;location;lat;lon;timestamp;P1;durP1;ratioP1;P2;durP2;ratioP2
13590;SDS011;6866;50.778;7.206;2022-09-09T00:04:00;6.68;;;1.00;;
13590;SDS011;6866;50.778;7.206;2022-09-09T00:06:43;5.13;;;1.20;;
13590;SDS011;6866;50.778;7.206;2022-09-09T00:09:16;5.88;;;1.20;;
13590;SDS011;6866;50.778;7.206;2022-09-09T00:11:43;5.63;;;1.00;;
13590;SDS011;6866;50.778;7.206;2022-09-09T00:14:26;4.93;;;1.30;;
13590;SDS011;6866;50.778;7.206;2022-09-09T00:20:22;10.60;;;1.38;;
13590;SDS011;6866;50.778;7.206;2022-09-09T00:26:45;6.72;;;1.00;;
13590;SDS011;6866;50.778;7.206;2022-09-09T00:28:55;4.00;;;1.05;;
13590;SDS011;6866;50.778;7.206;2022-09-09T00:31:28;4.97;;;1.13;;
13590;SDS011;6866;50.778;7.206;2022-09-09T00:33:57;5.53;;;1.25;;
13590;SDS011;6866;50.778;7.206;2022-09-09T00:36:29;5.10;;;1.10;;
13590;SDS011;6866;50.778;7.206;2022-09-09T00:39:00;5.25;;;1.38;;
13590;SDS011;6866;50.778;7.206;2022-09-09T00:41:43;6.47;;;1.17;;
13590;SDS011;6866;50.778;7.206;2022-09-09T00:47:12;6.72;;;1.48;;
13590;SDS011;6866;50.778;7.206;2022-09-09T00:55:37;5.88;;;1.70;;
13590;SDS011;6866;50.778;7.206;2022-09-09T00:58:16;7.40;;;1.30;;
13590;SDS011;6866;50.778;7.206;2022-09-09T01:03:31;8.10;;;1.30;;
13590;SDS011;6866;50.778;7.206;2022-09-09T01:06:16;6.05;;;1.27;;
13590;SDS011;6866;50.778;7.206;2022-09-09T01:17:00;3.97;;;1.00;;
13590;SDS011;6866;50.778;7.206;2022-09-09T01:24:46;5.25;;;1.30;;
13590;SDS011;6866;50.778;7.206;2022-09-09T01:27:38;5.47;;;1.27;;
13590;SDS011;6866;50.778;7.206;2022-09-09T01:30:13;5.90;;;1.33;;
13590;SDS011;6866;50.778;7.206;2022-09-09T01:32:48;5.03;;;1.25;;
13590;SDS011;6866;50.778;7.206;2022-09-09T01:35:27;5.35;;;0.98;;
13590;SDS011;6866;50.778;7.206;2022-09-09T01:38:13;7.90;;;1.15;;
13590;SDS011;6866;50.778;7.206;2022-09-09T01:40:39;4.80;;;1.23;;
13590;SDS011;6866;50.778;7.206;2022-09-09T01:43:05;5.20;;;1.10;;
13590;SDS011;6866;50.778;7.206;2022-09-09T01:45:32;9.40;;;1.45;;
13590;SDS011;6866;50.778;7.206;2022-09-09T01:47:58;3.67;;;1.00;;
13590;SDS011;6866;50.778;7.206;2022-09-09T01:50:25;5.63;;;1.38;;
13590;SDS011;6866;50.778;7.206;2022-09-09T01:52:54;8.57;;;1.45;;
13590;SDS011;6866;50.778;7.206;2022-09-09T01:55:28;6.93;;;1.27;;
13590;SDS011;6866;50.778;7.206;2022-09-09T02:00:50;5.07;;;1.50;;
13590;SDS011;6866;50.778;7.206;2022-09-09T02:03:28;5.55;;;1.40;;
13590;SDS011;6866;50.778;7.206;2022-09-09T02:06:13;6.07;;;1.30;;
13590;SDS011;6866;50.778;7.206;2022-09-09T02:08:52;4.32;;;1.10;;
13590;SDS011;6866;50.778;7.206;2022-09-09T02:11:25;13.95;;;1.33;;
13590;SDS011;6866;50.778;7.206;2022-09-09T02:13:57;8.57;;;1.60;;
13590;SDS011;6866;50.778;7.206;2022-09-09T02:19:06;7.25;;;1.50;;
13590;SDS011;6866;50.778;7.206;2022-09-09T02:21:38;5.40;;;1.33;;
13590;SDS011;6866;50.778;7.206;2022-09-09T02:24:07;5.82;;;1.23;;
13590;SDS011;6866;50.778;7.206;2022-09-09T02:26:35;9.60;;;1.50;;
13590;SDS011;6866;50.778;7.206;2022-09-09T02:29:07;6.78;;;1.30;;
13590;SDS011;6866;50.778;7.206;2022-09-09T02:31:36;8.27;;;1.48;;
13590;SDS011;6866;50.778;7.206;2022-09-09T02:34:03;8.07;;;1.40;;
13590;SDS011;6866;50.778;7.206;2022-09-09T02:36:33;7.90;;;1.30;;
13590;SDS011;6866;50.778;7.206;2022-09-09T02:39:00;6.05;;;1.20;;
13590;SDS011;6866;50.778;7.206;2022-09-09T02:41:28;7.43;;;1.20;;
13590;SDS011;6866;50.778;7.206;2022-09-09T02:44:00;12.43;;;1.50;;
13590;SDS011;6866;50.778;7.206;2022-09-09T02:49:11;10.40;;;1.30;;
13590;SDS011;6866;50.778;7.206;2022-09-09T02:52:06;6.10;;;1.35;;
13590;SDS011;6866;50.778;7.206;2022-09-09T02:54:34;5.55;;;1.33;;
13590;SDS011;6866;50.778;7.206;2022-09-09T02:57:13;6.70;;;1.50;;
13590;SDS011;6866;50.778;7.206;2022-09-09T02:59:45;7.60;;;1.67;;
13590;SDS011;6866;50.778;7.206;2022-09-09T03:02:12;6.75;;;1.33;;
13590;SDS011;6866;50.778;7.206;2022-09-09T03:04:38;7.07;;;1.40;;
13590;SDS011;6866;50.778;7.206;2022-09-09T03:07:04;4.82;;;1.30;;
13590;SDS011;6866;50.778;7.206;2022-09-09T03:09:30;7.90;;;1.33;;
13590;SDS011;6866;50.778;7.206;2022-09-09T03:11:57;7.80;;;1.15;;
13590;SDS011;6866;50.778;7.206;2022-09-09T03:14:23;5.32;;;1.08;;
13590;SDS011;6866;50.778;7.206;2022-09-09T03:16:52;5.47;;;1.30;;
13590;SDS011;6866;50.778;7.206;2022-09-09T03:19:18;5.47;;;1.20;;
13590;SDS011;6866;50.778;7.206;2022-09-09T03:21:44;5.85;;;1.38;;
13590;SDS011;6866;50.778;7.206;2022-09-09T03:24:11;6.30;;;1.30;;
13590;SDS011;6866;50.778;7.206;2022-09-09T03:26:36;7.13;;;1.40;;
13590;SDS011;6866;50.778;7.206;2022-09-09T03:29:02;4.75;;;1.00;;
13590;SDS011;6866;50.778;7.206;2022-09-09T03:31:31;8.70;;;1.42;;
13590;SDS011;6866;50.778;7.206;2022-09-09T03:33:57;6.82;;;1.35;;
13590;SDS011;6866;50.778;7.206;2022-09-09T03:36:23;7.00;;;1.35;;
13590;SDS011;6866;50.778;7.206;2022-09-09T03:38:53;6.88;;;1.15;;
13590;SDS011;6866;50.778;7.206;2022-09-09T03:41:22;9.05;;;1.67;;
13590;SDS011;6866;50.778;7.206;2022-09-09T03:43:49;5.70;;;1.10;;
13590;SDS011;6866;50.778;7.206;2022-09-09T03:46:16;6.57;;;1.15;;
13590;SDS011;6866;50.778;7.206;2022-09-09T03:48:42;8.85;;;1.48;;
13590;SDS011;6866;50.778;7.206;2022-09-09T03:51:08;7.70;;;1.30;;
13590;SDS011;6866;50.778;7.206;2022-09-09T03:53:33;4.03;;;1.10;;
13590;SDS011;6866;50.778;7.206;2022-09-09T03:55:59;8.48;;;1.55;;
13590;SDS011;6866;50.778;7.206;2022-09-09T03:58:25;7.47;;;1.40;;
13590;SDS011;6866;50.778;7.206;2022-09-09T04:01:25;8.32;;;1.33;;
13590;SDS011;6866;50.778;7.206;2022-09-09T04:03:44;6.90;;;1.20;;
13590;SDS011;6866;50.778;7.206;2022-09-09T04:06:10;8.70;;;1.55;;
13590;SDS011;6866;50.778;7.206;2022-09-09T04:08:38;5.38;;;1.20;;
13590;SDS011;6866;50.778;7.206;2022-09-09T04:11:04;9.95;;;1.52;;
13590;SDS011;6866;50.778;7.206;2022-09-09T04:13:31;6.68;;;1.40;;
13590;SDS011;6866;50.778;7.206;2022-09-09T04:15:58;6.47;;;1.33;;
13590;SDS011;6866;50.778;7.206;2022-09-09T04:18:24;9.93;;;1.30;;
13590;SDS011;6866;50.778;7.206;2022-09-09T04:20:51;8.02;;;1.42;;
13590;SDS011;6866;50.778;7.206;2022-09-09T04:23:17;6.88;;;1.40;;
13590;SDS011;6866;50.778;7.206;2022-09-09T04:25:45;8.13;;;1.45;;
13590;SDS011;6866;50.778;7.206;2022-09-09T04:28:12;8.07;;;1.55;;
13590;SDS011;6866;50.778;7.206;2022-09-09T04:30:39;5.93;;;1.30;;
13590;SDS011;6866;50.778;7.206;2022-09-09T04:33:05;7.47;;;1.70;;
13590;SDS011;6866;50.778;7.206;2022-09-09T04:35:31;9.65;;;1.98;;
13590;SDS011;6866;50.778;7.206;2022-09-09T04:37:57;8.30;;;1.27;;
13590;SDS011;6866;50.778;7.206;2022-09-09T04:40:23;7.88;;;1.40;;
13590;SDS011;6866;50.778;7.206;2022-09-09T04:42:50;6.18;;;1.38;;
13590;SDS011;6866;50.778;7.206;2022-09-09T04:45:16;6.28;;;1.35;;
13590;SDS011;6866;50.778;7.206;2022-09-09T04:47:41;7.22;;;1.67;;
13590;SDS011;6866;50.778;7.206;2022-09-09T04:50:07;8.40;;;1.52;;
13590;SDS011;6866;50.778;7.206;2022-09-09T04:52:34;6.32;;;1.30;;
13590;SDS011;6866;50.778;7.206;2022-09-09T04:55:00;6.90;;;1.50;;
13590;SDS011;6866;50.778;7.206;2022-09-09T04:57:26;5.78;;;1.40;;
13590;SDS011;6866;50.778;7.206;2022-09-09T04:59:52;6.22;;;1.40;;
13590;SDS011;6866;50.778;7.206;2022-09-09T05:02:17;4.85;;;1.35;;
13590;SDS011;6866;50.778;7.206;2022-09-09T05:04:43;5.60;;;1.20;;
13590;SDS011;6866;50.778;7.206;2022-09-09T05:07:08;8.55;;;1.30;;
13590;SDS011;6866;50.778;7.206;2022-09-09T05:09:35;9.77;;;1.48;;
13590;SDS011;6866;50.778;7.206;2022-09-09T05:12:00;6.53;;;1.20;;
13590;SDS011;6866;50.778;7.206;2022-09-09T05:14:27;7.53;;;1.38;;
13590;SDS011;6866;50.778;7.206;2022-09-09T05:16:54;7.82;;;1.30;;
13590;SDS011;6866;50.778;7.206;2022-09-09T05:19:21;6.38;;;1.20;;
13590;SDS011;6866;50.778;7.206;2022-09-09T05:21:46;5.75;;;1.33;;
13590;SDS011;6866;50.778;7.206;2022-09-09T05:24:12;4.13;;;1.08;;
13590;SDS011;6866;50.778;7.206;2022-09-09T05:26:38;6.45;;;1.15;;
13590;SDS011;6866;50.778;7.206;2022-09-09T05:29:03;6.07;;;1.23;;
13590;SDS011;6866;50.778;7.206;2022-09-09T05:31:30;7.38;;;1.20;;
13590;SDS011;6866;50.778;7.206;2022-09-09T05:33:55;5.47;;;1.10;;
13590;SDS011;6866;50.778;7.206;2022-09-09T05:36:21;6.78;;;1.23;;
13590;SDS011;6866;50.778;7.206;2022-09-09T05:38:48;8.57;;;1.60;;
13590;SDS011;6866;50.778;7.206;2022-09-09T05:41:15;6.00;;;1.15;;
13590;SDS011;6866;50.778;7.206;2022-09-09T05:43:42;7.75;;;1.88;;
13590;SDS011;6866;50.778;7.206;2022-09-09T05:46:13;7.90;;;1.48;;
13590;SDS011;6866;50.778;7.206;2022-09-09T05:48:46;4.80;;;1.42;;
13590;SDS011;6866;50.778;7.206;2022-09-09T05:51:23;7.25;;;1.60;;
13590;SDS011;6866;50.778;7.206;2022-09-09T05:53:51;6.43;;;1.27;;
13590;SDS011;6866;50.778;7.206;2022-09-09T05:56:18;6.38;;;1.20;;
13590;SDS011;6866;50.778;7.206;2022-09-09T05:58:50;7.20;;;1.40;;
13590;SDS011;6866;50.778;7.206;2022-09-09T06:01:18;8.45;;;1.40;;
13590;SDS011;6866;50.778;7.206;2022-09-09T06:03:45;9.27;;;1.75;;
13590;SDS011;6866;50.778;7.206;2022-09-09T06:06:16;5.70;;;1.60;;
13590;SDS011;6866;50.778;7.206;2022-09-09T06:08:45;5.55;;;1.20;;
13590;SDS011;6866;50.778;7.206;2022-09-09T06:11:12;8.57;;;1.35;;
13590;SDS011;6866;50.778;7.206;2022-09-09T06:13:40;7.28;;;1.50;;
13590;SDS011;6866;50.778;7.206;2022-09-09T06:16:08;5.18;;;1.45;;
13590;SDS011;6866;50.778;7.206;2022-09-09T06:18:36;10.25;;;1.70;;
13590;SDS011;6866;50.778;7.206;2022-09-09T06:21:03;6.72;;;1.55;;
13590;SDS011;6866;50.778;7.206;2022-09-09T06:23:31;10.30;;;1.63;;
13590;SDS011;6866;50.778;7.206;2022-09-09T06:26:04;9.68;;;1.65;;
13590;SDS011;6866;50.778;7.206;2022-09-09T06:28:30;6.80;;;1.33;;
13590;SDS011;6866;50.778;7.206;2022-09-09T06:30:57;6.60;;;1.67;;
13590;SDS011;6866;50.778;7.206;2022-09-09T06:33:24;7.00;;;1.35;;
13590;SDS011;6866;50.778;7.206;2022-09-09T06:35:53;7.80;;;1.70;;
13590;SDS011;6866;50.778;7.206;2022-09-09T06:38:19;7.25;;;1.40;;
13590;SDS011;6866;50.778;7.206;2022-09-09T06:40:53;5.95;;;1.40;;
13590;SDS011;6866;50.778;7.206;2022-09-09T06:43:22;7.32;;;1.35;;
13590;SDS011;6866;50.778;7.206;2022-09-09T06:48:21;6.78;;;1.48;;
13590;SDS011;6866;50.778;7.206;2022-09-09T06:50:47;7.43;;;1.50;;
13590;SDS011;6866;50.778;7.206;2022-09-09T06:53:16;7.07;;;1.55;;
13590;SDS011;6866;50.778;7.206;2022-09-09T06:55:44;7.57;;;1.50;;
13590;SDS011;6866;50.778;7.206;2022-09-09T07:05:29;5.93;;;1.27;;
13590;SDS011;6866;50.778;7.206;2022-09-09T07:07:54;6.32;;;1.40;;
13590;SDS011;6866;50.778;7.206;2022-09-09T07:10:20;8.50;;;1.30;;
13590;SDS011;6866;50.778;7.206;2022-09-09T07:17:43;7.88;;;1.48;;
13590;SDS011;6866;50.778;7.206;2022-09-09T07:20:09;8.30;;;1.48;;
13590;SDS011;6866;50.778;7.206;2022-09-09T07:22:34;8.20;;;1.83;;
13590;SDS011;6866;50.778;7.206;2022-09-09T07:25:00;6.35;;;1.55;;
13590;SDS011;6866;50.778;7.206;2022-09-09T07:27:27;4.38;;;1.30;;
13590;SDS011;6866;50.778;7.206;2022-09-09T07:29:52;7.32;;;1.13;;
13590;SDS011;6866;50.778;7.206;2022-09-09T07:32:19;5.15;;;1.48;;
13590;SDS011;6866;50.778;7.206;2022-09-09T07:34:45;7.68;;;1.50;;
13590;SDS011;6866;50.778;7.206;2022-09-09T07:37:12;5.40;;;1.33;;
13590;SDS011;6866;50.778;7.206;2022-09-09T07:39:38;5.40;;;1.20;;
13590;SDS011;6866;50.778;7.206;2022-09-09T07:42:04;6.57;;;1.30;;
13590;SDS011;6866;50.778;7.206;2022-09-09T07:44:30;8.20;;;1.52;;
13590;SDS011;6866;50.778;7.206;2022-09-09T07:46:59;4.63;;;1.38;;
13590;SDS011;6866;50.778;7.206;2022-09-09T07:49:25;4.72;;;1.30;;
13590;SDS011;6866;50.778;7.206;2022-09-09T07:51:51;6.45;;;1.42;;
13590;SDS011;6866;50.778;7.206;2022-09-09T07:54:17;6.70;;;1.33;;
13590;SDS011;6866;50.778;7.206;2022-09-09T07:59:11;5.70;;;1.40;;
13590;SDS011;6866;50.778;7.206;2022-09-09T08:01:44;7.70;;;1.38;;
13590;SDS011;6866;50.778;7.206;2022-09-09T08:04:12;8.63;;;1.73;;
13590;SDS011;6866;50.778;7.206;2022-09-09T08:06:40;10.43;;;1.70;;
13590;SDS011;6866;50.778;7.206;2022-09-09T08:09:08;6.05;;;1.23;;
13590;SDS011;6866;50.778;7.206;2022-09-09T08:11:34;9.88;;;1.70;;
13590;SDS011;6866;50.778;7.206;2022-09-09T08:14:01;6.82;;;1.40;;
13590;SDS011;6866;50.778;7.206;2022-09-09T08:16:32;6.18;;;1.50;;
13590;SDS011;6866;50.778;7.206;2022-09-09T08:19:01;10.02;;;1.80;;
13590;SDS011;6866;50.778;7.206;2022-09-09T08:21:28;5.65;;;1.30;;
13590;SDS011;6866;50.778;7.206;2022-09-09T08:23:55;8.82;;;1.50;;
13590;SDS011;6866;50.778;7.206;2022-09-09T08:26:24;8.15;;;1.58;;
13590;SDS011;6866;50.778;7.206;2022-09-09T08:28:57;6.05;;;1.27;;
13590;SDS011;6866;50.778;7.206;2022-09-09T08:33:52;6.72;;;1.40;;
13590;SDS011;6866;50.778;7.206;2022-09-09T08:44:14;7.57;;;1.75;;
13590;SDS011;6866;50.778;7.206;2022-09-09T08:49:50;11.20;;;1.70;;
13590;SDS011;6866;50.778;7.206;2022-09-09T08:54:44;5.65;;;1.40;;
13590;SDS011;6866;50.778;7.206;2022-09-09T08:57:12;8.93;;;1.48;;
13590;SDS011;6866;50.778;7.206;2022-09-09T08:59:42;8.60;;;1.50;;
13590;SDS011;6866;50.778;7.206;2022-09-09T09:07:25;10.90;;;1.75;;
13590;SDS011;6866;50.778;7.206;2022-09-09T09:12:38;6.07;;;1.30;;
13590;SDS011;6866;50.778;7.206;2022-09-09T09:17:42;8.25;;;1.30;;
13590;SDS011;6866;50.778;7.206;2022-09-09T09:20:11;3.92;;;1.08;;
13590;SDS011;6866;50.778;7.206;2022-09-09T09:22:43;6.35;;;1.30;;
13590;SDS011;6866;50.778;7.206;2022-09-09T09:28:03;5.47;;;1.20;;
13590;SDS011;6866;50.778;7.206;2022-09-09T09:30:44;5.97;;;1.33;;
13590;SDS011;6866;50.778;7.206;2022-09-09T09:33:21;4.53;;;0.95;;
13590;SDS011;6866;50.778;7.206;2022-09-09T09:36:00;4.00;;;1.33;;
13590;SDS011;6866;50.778;7.206;2022-09-09T09:38:27;6.25;;;1.30;;
13590;SDS011;6866;50.778;7.206;2022-09-09T09:40:54;10.05;;;1.20;;
13590;SDS011;6866;50.778;7.206;2022-09-09T09:45:51;4.57;;;1.08;;
13590;SDS011;6866;50.778;7.206;2022-09-09T09:48:17;4.40;;;1.10;;
13590;SDS011;6866;50.778;7.206;2022-09-09T09:50:46;5.25;;;1.10;;
13590;SDS011;6866;50.778;7.206;2022-09-09T09:53:26;5.55;;;1.40;;
13590;SDS011;6866;50.778;7.206;2022-09-09T09:55:54;5.55;;;1.25;;
13590;SDS011;6866;50.778;7.206;2022-09-09T09:58:22;6.18;;;1.80;;
13590;SDS011;6866;50.778;7.206;2022-09-09T10:00:50;7.93;;;1.30;;
13590;SDS011;6866;50.778;7.206;2022-09-09T10:03:20;8.85;;;1.70;;
13590;SDS011;6866;50.778;7.206;2022-09-09T10:05:48;5.13;;;1.25;;
13590;SDS011;6866;50.778;7.206;2022-09-09T10:08:15;6.78;;;1.17;;
13590;SDS011;6866;50.778;7.206;2022-09-09T10:15:42;5.80;;;1.20;;
13590;SDS011;6866;50.778;7.206;2022-09-09T10:18:38;4.25;;;1.13;;
13590;SDS011;6866;50.778;7.206;2022-09-09T10:21:17;6.22;;;1.30;;
13590;SDS011;6866;50.778;7.206;2022-09-09T10:23:58;6.82;;;1.40;;
13590;SDS011;6866;50.778;7.206;2022-09-09T10:26:38;4.22;;;1.17;;
13590;SDS011;6866;50.778;7.206;2022-09-09T10:29:12;6.32;;;1.20;;
13590;SDS011;6866;50.778;7.206;2022-09-09T10:31:48;4.13;;;1.30;;
13590;SDS011;6866;50.778;7.206;2022-09-09T10:37:18;7.15;;;1.10;;
13590;SDS011;6866;50.778;7.206;2022-09-09T10:39:50;7.10;;;1.10;;
13590;SDS011;6866;50.778;7.206;2022-09-09T10:42:39;7.05;;;1.55;;
13590;SDS011;6866;50.778;7.206;2022-09-09T10:45:17;11.82;;;1.40;;
13590;SDS011;6866;50.778;7.206;2022-09-09T10:47:55;6.82;;;1.40;;
13590;SDS011;6866;50.778;7.206;2022-09-09T10:55:44;6.38;;;1.33;;
13590;SDS011;6866;50.778;7.206;2022-09-09T10:58:30;4.85;;;1.05;;
13590;SDS011;6866;50.778;7.206;2022-09-09T11:03:53;5.57;;;1.02;;
13590;SDS011;6866;50.778;7.206;2022-09-09T11:06:25;5.13;;;1.10;;
13590;SDS011;6866;50.778;7.206;2022-09-09T11:09:17;5.57;;;1.50;;
13590;SDS011;6866;50.778;7.206;2022-09-09T11:11:48;6.47;;;1.20;;
13590;SDS011;6866;50.778;7.206;2022-09-09T11:14:19;4.45;;;1.30;;
13590;SDS011;6866;50.778;7.206;2022-09-09T11:16:59;4.75;;;1.15;;
13590;SDS011;6866;50.778;7.206;2022-09-09T11:19:35;12.13;;;1.20;;
13590;SDS011;6866;50.778;7.206;2022-09-09T11:24:38;5.57;;;1.08;;
13590;SDS011;6866;50.778;7.206;2022-09-09T11:27:11;5.88;;;1.15;;
13590;SDS011;6866;50.778;7.206;2022-09-09T11:29:56;5.97;;;1.58;;
13590;SDS011;6866;50.778;7.206;2022-09-09T11:32:40;4.90;;;1.13;;
13590;SDS011;6866;50.778;7.206;2022-09-09T11:38:45;6.38;;;1.00;;
13590;SDS011;6866;50.778;7.206;2022-09-09T11:41:12;3.63;;;0.95;;
13590;SDS011;6866;50.778;7.206;2022-09-09T11:43:43;4.72;;;1.13;;
13590;SDS011;6866;50.778;7.206;2022-09-09T11:46:11;5.53;;;1.55;;
13590;SDS011;6866;50.778;7.206;2022-09-09T11:48:41;6.13;;;1.30;;
13590;SDS011;6866;50.778;7.206;2022-09-09T11:51:10;3.65;;;1.20;;
13590;SDS011;6866;50.778;7.206;2022-09-09T11:53:54;3.95;;;1.10;;
13590;SDS011;6866;50.778;7.206;2022-09-09T11:56:30;5.60;;;1.20;;
13590;SDS011;6866;50.778;7.206;2022-09-09T11:59:00;4.70;;;0.95;;
13590;SDS011;6866;50.778;7.206;2022-09-09T12:01:40;5.18;;;1.00;;
13590;SDS011;6866;50.778;7.206;2022-09-09T12:06:43;2.88;;;0.80;;
13590;SDS011;6866;50.778;7.206;2022-09-09T12:11:46;11.93;;;1.35;;
13590;SDS011;6866;50.778;7.206;2022-09-09T12:14:21;7.15;;;1.30;;
13590;SDS011;6866;50.778;7.206;2022-09-09T12:17:17;6.50;;;1.20;;
13590;SDS011;6866;50.778;7.206;2022-09-09T12:20:00;5.30;;;1.23;;
13590;SDS011;6866;50.778;7.206;2022-09-09T12:22:38;4.10;;;0.90;;
13590;SDS011;6866;50.778;7.206;2022-09-09T12:27:34;4.30;;;1.10;;
13590;SDS011;6866;50.778;7.206;2022-09-09T12:30:09;5.90;;;0.90;;
13590;SDS011;6866;50.778;7.206;2022-09-09T12:32:36;4.53;;;1.27;;
13590;SDS011;6866;50.778;7.206;2022-09-09T12:35:04;4.45;;;0.82;;
13590;SDS011;6866;50.778;7.206;2022-09-09T12:37:44;4.70;;;0.88;;
13590;SDS011;6866;50.778;7.206;2022-09-09T12:43:20;3.83;;;0.90;;
13590;SDS011;6866;50.778;7.206;2022-09-09T12:45:47;4.55;;;1.10;;
13590;SDS011;6866;50.778;7.206;2022-09-09T12:48:16;4.38;;;0.90;;
13590;SDS011;6866;50.778;7.206;2022-09-09T12:50:46;5.30;;;1.10;;
13590;SDS011;6866;50.778;7.206;2022-09-09T12:55:52;5.20;;;1.27;;
13590;SDS011;6866;50.778;7.206;2022-09-09T12:58:30;4.80;;;1.02;;
13590;SDS011;6866;50.778;7.206;2022-09-09T13:00:59;5.40;;;1.00;;
13590;SDS011;6866;50.778;7.206;2022-09-09T13:03:30;4.20;;;1.25;;
13590;SDS011;6866;50.778;7.206;2022-09-09T13:06:12;5.90;;;1.08;;
13590;SDS011;6866;50.778;7.206;2022-09-09T13:08:43;3.42;;;1.15;;
13590;SDS011;6866;50.778;7.206;2022-09-09T13:11:10;4.53;;;1.10;;
13590;SDS011;6866;50.778;7.206;2022-09-09T13:13:41;7.28;;;1.30;;
13590;SDS011;6866;50.778;7.206;2022-09-09T13:18:56;7.72;;;1.13;;
13590;SDS011;6866;50.778;7.206;2022-09-09T13:21:39;5.20;;;1.08;;
13590;SDS011;6866;50.778;7.206;2022-09-09T13:24:06;4.43;;;1.05;;
13590;SDS011;6866;50.778;7.206;2022-09-09T13:26:55;4.45;;;0.93;;
13590;SDS011;6866;50.778;7.206;2022-09-09T13:29:27;4.00;;;1.00;;
13590;SDS011;6866;50.778;7.206;2022-09-09T13:31:53;4.57;;;1.05;;
13590;SDS011;6866;50.778;7.206;2022-09-09T13:34:27;6.18;;;1.10;;
13590;SDS011;6866;50.778;7.206;2022-09-09T13:36:59;5.32;;;0.98;;
13590;SDS011;6866;50.778;7.206;2022-09-09T13:39:27;3.80;;;0.90;;
13590;SDS011;6866;50.778;7.206;2022-09-09T13:41:53;4.57;;;1.15;;
13590;SDS011;6866;50.778;7.206;2022-09-09T13:44:27;4.70;;;1.00;;
13590;SDS011;6866;50.778;7.206;2022-09-09T13:47:00;7.78;;;1.55;;
13590;SDS011;6866;50.778;7.206;2022-09-09T13:49:31;4.53;;;0.90;;
13590;SDS011;6866;50.778;7.206;2022-09-09T13:54:28;4.38;;;1.02;;
13590;SDS011;6866;50.778;7.206;2022-09-09T13:56:55;3.70;;;0.90;;
13590;SDS011;6866;50.778;7.206;2022-09-09T13:59:21;3.80;;;0.80;;
13590;SDS011;6866;50.778;7.206;2022-09-09T14:01:47;4.63;;;0.95;;
13590;SDS011;6866;50.778;7.206;2022-09-09T14:04:17;3.78;;;1.10;;
13590;SDS011;6866;50.778;7.206;2022-09-09T14:06:46;4.45;;;1.20;;
13590;SDS011;6866;50.778;7.206;2022-09-09T14:09:13;1.25;;;0.50;;
13590;SDS011;6866;50.778;7.206;2022-09-09T14:11:40;4.45;;;0.75;;
13590;SDS011;6866;50.778;7.206;2022-09-09T14:14:06;3.92;;;0.70;;
13590;SDS011;6866;50.778;7.206;2022-09-09T14:16:31;3.95;;;0.80;;
13590;SDS011;6866;50.778;7.206;2022-09-09T14:18:57;3.80;;;0.63;;
13590;SDS011;6866;50.778;7.206;2022-09-09T14:21:24;3.47;;;0.90;;
13590;SDS011;6866;50.778;7.206;2022-09-09T14:23:50;5.60;;;1.00;;
13590;SDS011;6866;50.778;7.206;2022-09-09T14:26:17;5.28;;;1.00;;
13590;SDS011;6866;50.778;7.206;2022-09-09T14:28:43;4.75;;;1.25;;
13590;SDS011;6866;50.778;7.206;2022-09-09T14:31:10;2.63;;;0.80;;
13590;SDS011;6866;50.778;7.206;2022-09-09T14:33:38;3.63;;;0.80;;
13590;SDS011;6866;50.778;7.206;2022-09-09T14:36:03;3.03;;;0.77;;
13590;SDS011;6866;50.778;7.206;2022-09-09T14:38:30;2.60;;;0.70;;
13590;SDS011;6866;50.778;7.206;2022-09-09T14:40:58;4.25;;;0.80;;
13590;SDS011;6866;50.778;7.206;2022-09-09T14:43:24;3.65;;;1.08;;
13590;SDS011;6866;50.778;7.206;2022-09-09T14:45:51;3.67;;;0.70;;
13590;SDS011;6866;50.778;7.206;2022-09-09T14:48:16;2.67;;;0.70;;
13590;SDS011;6866;50.778;7.206;2022-09-09T14:50:42;3.53;;;0.80;;
13590;SDS011;6866;50.778;7.206;2022-09-09T14:53:08;2.83;;;0.77;;
13590;SDS011;6866;50.778;7.206;2022-09-09T14:55:35;3.05;;;0.70;;
13590;SDS011;6866;50.778;7.206;2022-09-09T14:58:02;2.70;;;0.60;;
13590;SDS011;6866;50.778;7.206;2022-09-09T15:00:28;2.67;;;0.77;;
13590;SDS011;6866;50.778;7.206;2022-09-09T15:02:54;4.13;;;0.88;;
13590;SDS011;6866;50.778;7.206;2022-09-09T15:10:13;4.28;;;0.75;;
13590;SDS011;6866;50.778;7.206;2022-09-09T15:12:39;2.83;;;0.65;;
13590;SDS011;6866;50.778;7.206;2022-09-09T15:15:06;5.57;;;0.80;;
13590;SDS011;6866;50.778;7.206;2022-09-09T15:17:33;4.20;;;0.65;;
13590;SDS011;6866;50.778;7.206;2022-09-09T15:19:59;3.25;;;0.70;;
13590;SDS011;6866;50.778;7.206;2022-09-09T15:22:24;4.03;;;1.00;;
13590;SDS011;6866;50.778;7.206;2022-09-09T15:24:50;3.22;;;0.80;;
13590;SDS011;6866;50.778;7.206;2022-09-09T15:27:16;3.03;;;0.88;;
13590;SDS011;6866;50.778;7.206;2022-09-09T15:29:42;2.92;;;0.80;;
13590;SDS011;6866;50.778;7.206;2022-09-09T15:32:09;3.05;;;0.70;;
13590;SDS011;6866;50.778;7.206;2022-09-09T15:34:34;4.97;;;0.82;;
13590;SDS011;6866;50.778;7.206;2022-09-09T15:37:00;4.43;;;0.90;;
13590;SDS011;6866;50.778;7.206;2022-09-09T15:39:28;3.33;;;0.90;;
13590;SDS011;6866;50.778;7.206;2022-09-09T15:41:54;6.97;;;1.10;;
13590;SDS011;6866;50.778;7.206;2022-09-09T15:44:20;3.67;;;1.00;;
13590;SDS011;6866;50.778;7.206;2022-09-09T15:46:50;3.65;;;1.00;;
13590;SDS011;6866;50.778;7.206;2022-09-09T15:49:22;3.42;;;0.90;;
13590;SDS011;6866;50.778;7.206;2022-09-09T15:51:53;3.72;;;1.02;;
13590;SDS011;6866;50.778;7.206;2022-09-09T15:54:20;4.70;;;1.15;;
13590;SDS011;6866;50.778;7.206;2022-09-09T15:56:53;3.20;;;0.82;;
13590;SDS011;6866;50.778;7.206;2022-09-09T15:59:24;4.57;;;1.00;;
13590;SDS011;6866;50.778;7.206;2022-09-09T16:01:51;3.30;;;0.80;;
13590;SDS011;6866;50.778;7.206;2022-09-09T16:04:20;4.00;;;1.25;;
13590;SDS011;6866;50.778;7.206;2022-09-09T16:06:53;3.88;;;0.85;;
13590;SDS011;6866;50.778;7.206;2022-09-09T16:09:20;2.05;;;0.73;;
13590;SDS011;6866;50.778;7.206;2022-09-09T16:11:46;4.93;;;0.90;;
13590;SDS011;6866;50.778;7.206;2022-09-09T16:14:12;3.28;;;0.70;;
13590;SDS011;6866;50.778;7.206;2022-09-09T16:16:40;3.83;;;0.85;;
13590;SDS011;6866;50.778;7.206;2022-09-09T16:19:07;2.22;;;0.77;;
13590;SDS011;6866;50.778;7.206;2022-09-09T16:21:38;3.15;;;0.80;;
13590;SDS011;6866;50.778;7.206;2022-09-09T16:24:10;3.78;;;0.80;;
13590;SDS011;6866;50.778;7.206;2022-09-09T16:26:38;4.00;;;0.90;;
13590;SDS011;6866;50.778;7.206;2022-09-09T16:29:05;4.13;;;0.90;;
13590;SDS011;6866;50.778;7.206;2022-09-09T16:31:31;4.57;;;1.08;;
13590;SDS011;6866;50.778;7.206;2022-09-09T16:33:57;7.90;;;1.30;;
13590;SDS011;6866;50.778;7.206;2022-09-09T16:36:23;5.57;;;1.00;;
13590;SDS011;6866;50.778;7.206;2022-09-09T16:38:55;5.32;;;0.93;;
13590;SDS011;6866;50.778;7.206;2022-09-09T16:41:25;8.02;;;1.10;;
13590;SDS011;6866;50.778;7.206;2022-09-09T16:43:56;4.47;;;1.10;;
13590;SDS011;6866;50.778;7.206;2022-09-09T16:46:27;3.45;;;1.00;;
13590;SDS011;6866;50.778;7.206;2022-09-09T16:48:55;3.55;;;1.00;;
13590;SDS011;6866;50.778;7.206;2022-09-09T16:51:22;3.05;;;0.98;;
13590;SDS011;6866;50.778;7.206;2022-09-09T16:56:20;2.75;;;0.85;;
13590;SDS011;6866;50.778;7.206;2022-09-09T16:58:51;4.65;;;0.93;;
13590;SDS011;6866;50.778;7.206;2022-09-09T17:03:47;4.47;;;1.05;;
13590;SDS011;6866;50.778;7.206;2022-09-09T17:06:21;5.35;;;1.50;;
13590;SDS011;6866;50.778;7.206;2022-09-09T17:08:47;4.40;;;1.10;;
13590;SDS011;6866;50.778;7.206;2022-09-09T17:11:14;5.53;;;1.20;;
13590;SDS011;6866;50.778;7.206;2022-09-09T17:13:42;6.65;;;1.27;;
13590;SDS011;6866;50.778;7.206;2022-09-09T17:16:08;5.93;;;1.30;;
13590;SDS011;6866;50.778;7.206;2022-09-09T17:18:34;3.40;;;1.13;;
13590;SDS011;6866;50.778;7.206;2022-09-09T17:21:20;2.60;;;0.95;;
13590;SDS011;6866;50.778;7.206;2022-09-09T17:23:48;3.08;;;0.95;;
13590;SDS011;6866;50.778;7.206;2022-09-09T17:26:15;3.85;;;1.13;;
13590;SDS011;6866;50.778;7.206;2022-09-09T17:28:42;5.00;;;1.20;;
13590;SDS011;6866;50.778;7.206;2022-09-09T17:31:09;4.60;;;1.00;;
13590;SDS011;6866;50.778;7.206;2022-09-09T17:33:40;4.88;;;1.10;;
13590;SDS011;6866;50.778;7.206;2022-09-09T17:38:41;3.13;;;1.00;;
13590;SDS011;6866;50.778;7.206;2022-09-09T17:41:19;4.97;;;1.10;;